createdAt,value
2023-01-31T00:00:11.174Z,89.48
2023-01-31T00:00:21.975Z,89.48
2023-01-31T00:00:32.733Z,89.37
2023-01-31T00:00:45.973Z,89.37
2023-01-31T00:01:00.851Z,89.37
2023-01-31T00:01:13.619Z,89.37
2023-01-31T00:01:24.403Z,89.27
2023-01-31T00:01:37.632Z,89.27
2023-01-31T00:01:49.898Z,89.37
2023-01-31T00:02:02.312Z,89.37
2023-01-31T00:02:14.804Z,89.48
2023-01-31T00:02:26.839Z,89.58
2023-01-31T00:02:37.702Z,89.69
2023-01-31T00:02:49.430Z,89.58
2023-01-31T00:03:01.872Z,89.58
2023-01-31T00:03:12.717Z,89.58
2023-01-31T00:03:24.506Z,89.48
2023-01-31T00:03:37.487Z,89.48
2023-01-31T00:03:48.371Z,89.37
2023-01-31T00:04:00.608Z,89.37
2023-01-31T00:04:12.891Z,89.37
2023-01-31T00:04:25.846Z,89.48
2023-01-31T00:04:36.611Z,89.48
2023-01-31T00:04:47.392Z,89.48
2023-01-31T00:04:59.623Z,89.37
2023-01-31T00:05:10.409Z,89.27
2023-01-31T00:05:21.637Z,89.17
2023-01-31T00:05:32.564Z,89.17
2023-01-31T00:05:44.868Z,89.06
2023-01-31T00:05:55.651Z,89.06
2023-01-31T00:06:07.375Z,88.96
2023-01-31T00:06:19.130Z,88.96
2023-01-31T00:06:31.644Z,88.96
2023-01-31T00:06:43.393Z,89.06
2023-01-31T00:06:55.832Z,89.06
2023-01-31T00:07:08.281Z,89.17
2023-01-31T00:07:19.092Z,89.27
2023-01-31T00:07:30.849Z,89.37
2023-01-31T00:07:44.493Z,89.37
2023-01-31T00:07:55.331Z,89.37
2023-01-31T00:08:06.100Z,89.37
2023-01-31T00:08:19.320Z,89.37
2023-01-31T00:08:31.893Z,89.27
2023-01-31T00:08:44.470Z,89.17
2023-01-31T00:08:55.212Z,89.06
2023-01-31T00:09:05.984Z,89.06
2023-01-31T00:09:16.790Z,89.06
2023-01-31T00:09:27.503Z,89.06
2023-01-31T00:09:38.524Z,89.06
2023-01-31T00:09:50.968Z,89.06
2023-01-31T00:10:03.171Z,89.06
2023-01-31T00:10:16.435Z,89.17
2023-01-31T00:10:30.193Z,89.17
2023-01-31T00:10:42.013Z,89.17
2023-01-31T00:10:52.797Z,89.17
2023-01-31T00:11:05.584Z,89.17
2023-01-31T00:11:18.132Z,89.06
2023-01-31T00:11:28.876Z,89.06
2023-01-31T00:11:39.659Z,89.06
2023-01-31T00:11:51.401Z,89.06
2023-01-31T00:12:03.123Z,88.96
2023-01-31T00:12:13.906Z,89.06
2023-01-31T00:12:26.398Z,89.06
2023-01-31T00:12:37.289Z,89.06
2023-01-31T00:12:50.384Z,89.06
2023-01-31T00:13:01.153Z,88.85
2023-01-31T00:13:12.893Z,88.65
2023-01-31T00:13:24.654Z,88.54
2023-01-31T00:13:36.395Z,88.44
2023-01-31T00:13:47.283Z,88.44
2023-01-31T00:13:59.068Z,88.44
2023-01-31T00:14:09.824Z,88.44
2023-01-31T00:14:20.624Z,88.54
2023-01-31T00:14:33.325Z,88.54
2023-01-31T00:14:45.072Z,88.44
2023-01-31T00:14:55.844Z,88.34
2023-01-31T00:15:08.273Z,88.34
2023-01-31T00:15:20.391Z,88.23
2023-01-31T00:15:31.351Z,88.09
2023-01-31T00:15:43.631Z,88.09
2023-01-31T00:15:55.435Z,87.78
2023-01-31T00:16:07.236Z,87.57
2023-01-31T00:16:18.962Z,87.37
2023-01-31T00:16:32.170Z,87.37
2023-01-31T00:16:43.908Z,87.37
2023-01-31T00:16:56.646Z,87.37
2023-01-31T00:17:08.384Z,87.37
2023-01-31T00:17:20.673Z,87.16
2023-01-31T00:17:31.487Z,87.16
2023-01-31T00:17:43.781Z,87.05
2023-01-31T00:17:54.524Z,87.05
2023-01-31T00:18:06.734Z,87.16
2023-01-31T00:18:18.459Z,87.26
2023-01-31T00:18:29.243Z,87.26
2023-01-31T00:18:41.454Z,87.26
2023-01-31T00:18:52.225Z,87.16
2023-01-31T00:19:03.209Z,87.16
2023-01-31T00:19:15.671Z,87.16
2023-01-31T00:19:26.409Z,87.16
2023-01-31T00:19:39.643Z,87.26
2023-01-31T00:19:50.420Z,87.26
2023-01-31T00:20:02.145Z,87.16
2023-01-31T00:20:14.359Z,87.16
2023-01-31T00:20:26.092Z,87.16
2023-01-31T00:20:37.134Z,87.16
2023-01-31T00:20:50.305Z,87.16
2023-01-31T00:21:02.574Z,87.16
2023-01-31T00:21:14.296Z,87.26
2023-01-31T00:21:28.441Z,87.26
2023-01-31T00:21:41.184Z,87.37
2023-01-31T00:21:51.992Z,87.37
2023-01-31T00:22:02.783Z,87.16
2023-01-31T00:22:14.987Z,87.05
2023-01-31T00:22:26.728Z,87.05
2023-01-31T00:22:39.956Z,86.95
2023-01-31T00:22:51.706Z,86.99
2023-01-31T00:23:04.150Z,86.95
2023-01-31T00:23:15.935Z,86.95
2023-01-31T00:23:26.719Z,86.85
2023-01-31T00:23:39.071Z,86.85
2023-01-31T00:23:49.844Z,86.88
2023-01-31T00:24:01.605Z,86.99
2023-01-31T00:24:12.334Z,86.95
2023-01-31T00:24:23.190Z,86.99
2023-01-31T00:24:36.405Z,86.99
2023-01-31T00:24:48.887Z,86.95
2023-01-31T00:25:01.376Z,86.99
2023-01-31T00:25:13.849Z,86.99
2023-01-31T00:25:24.611Z,87.09
2023-01-31T00:25:37.031Z,87.09
2023-01-31T00:25:48.097Z,87.09
2023-01-31T00:26:00.086Z,86.99
2023-01-31T00:26:11.864Z,86.95
2023-01-31T00:26:25.085Z,86.99
2023-01-31T00:26:38.056Z,86.99
2023-01-31T00:26:48.887Z,86.74
2023-01-31T00:27:00.620Z,86.74
2023-01-31T00:27:11.386Z,86.74
2023-01-31T00:27:23.859Z,86.78
2023-01-31T00:27:36.337Z,86.78
2023-01-31T00:27:50.595Z,86.78
2023-01-31T00:28:03.027Z,86.88
2023-01-31T00:28:14.819Z,86.88
2023-01-31T00:28:27.047Z,86.99
2023-01-31T00:28:39.404Z,86.99
2023-01-31T00:28:51.275Z,87.09
2023-01-31T00:29:02.086Z,87.09
2023-01-31T00:29:12.857Z,87.09
2023-01-31T00:29:26.488Z,87.09
2023-01-31T00:29:38.535Z,87.19
2023-01-31T00:29:49.316Z,87.19
2023-01-31T00:30:00.097Z,87.19
2023-01-31T00:30:11.848Z,87.30
2023-01-31T00:30:22.630Z,87.30
2023-01-31T00:30:33.368Z,87.30
2023-01-31T00:30:44.174Z,87.40
2023-01-31T00:30:55.915Z,87.40
2023-01-31T00:31:06.663Z,87.40
2023-01-31T00:31:18.573Z,87.51
2023-01-31T00:31:29.462Z,87.51
2023-01-31T00:31:41.797Z,87.61
2023-01-31T00:31:54.319Z,87.61
2023-01-31T00:32:06.875Z,87.71
2023-01-31T00:32:18.684Z,87.71
2023-01-31T00:32:29.499Z,87.86
2023-01-31T00:32:40.345Z,87.86
2023-01-31T00:32:52.084Z,87.86
2023-01-31T00:33:03.845Z,87.86
2023-01-31T00:33:16.038Z,87.86
2023-01-31T00:33:28.506Z,87.86
2023-01-31T00:33:41.747Z,87.96
2023-01-31T00:33:53.526Z,88.07
2023-01-31T00:34:04.331Z,88.07
2023-01-31T00:34:16.557Z,88.07
2023-01-31T00:34:29.017Z,88.07
2023-01-31T00:34:41.495Z,88.07
2023-01-31T00:34:53.717Z,87.86
2023-01-31T00:35:05.476Z,87.76
2023-01-31T00:35:16.262Z,87.65
2023-01-31T00:35:28.015Z,87.65
2023-01-31T00:35:39.769Z,87.55
2023-01-31T00:35:51.437Z,87.55
2023-01-31T00:36:02.167Z,87.55
2023-01-31T00:36:15.413Z,87.55
2023-01-31T00:36:27.143Z,87.45
2023-01-31T00:36:39.605Z,87.34
2023-01-31T00:36:50.368Z,87.34
2023-01-31T00:37:02.928Z,87.24
2023-01-31T00:37:13.760Z,87.24
2023-01-31T00:37:26.227Z,87.13
2023-01-31T00:37:38.213Z,86.99
2023-01-31T00:37:50.645Z,86.78
2023-01-31T00:38:03.131Z,86.78
2023-01-31T00:38:16.850Z,86.78
2023-01-31T00:38:29.071Z,86.78
2023-01-31T00:38:41.311Z,86.78
2023-01-31T00:38:52.128Z,86.88
2023-01-31T00:39:02.914Z,86.88
2023-01-31T00:39:16.151Z,86.88
2023-01-31T00:39:26.928Z,86.99
2023-01-31T00:39:38.355Z,86.99
2023-01-31T00:39:50.520Z,86.99
2023-01-31T00:40:03.037Z,86.88
2023-01-31T00:40:13.944Z,86.88
2023-01-31T00:40:24.720Z,86.88
2023-01-31T00:40:36.356Z,86.88
2023-01-31T00:40:48.129Z,86.99
2023-01-31T00:41:00.600Z,86.99
2023-01-31T00:41:11.382Z,87.09
2023-01-31T00:41:24.504Z,87.19
2023-01-31T00:41:38.505Z,87.19
2023-01-31T00:41:49.389Z,87.09
2023-01-31T00:42:01.198Z,87.09
2023-01-31T00:42:13.431Z,87.09
2023-01-31T00:42:26.150Z,87.09
2023-01-31T00:42:38.846Z,87.19
2023-01-31T00:42:51.102Z,87.19
2023-01-31T00:43:03.332Z,87.19
2023-01-31T00:43:14.119Z,87.24
2023-01-31T00:43:24.908Z,87.34
2023-01-31T00:43:37.110Z,87.34
2023-01-31T00:43:47.858Z,87.45
2023-01-31T00:43:58.644Z,87.45
2023-01-31T00:44:11.091Z,87.45
2023-01-31T00:44:22.858Z,87.55
2023-01-31T00:44:35.866Z,87.55
2023-01-31T00:44:46.688Z,87.55
2023-01-31T00:44:58.430Z,87.55
2023-01-31T00:45:09.198Z,87.55
2023-01-31T00:45:21.352Z,87.55
2023-01-31T00:45:32.307Z,87.55
2023-01-31T00:45:44.069Z,87.65
2023-01-31T00:45:54.847Z,87.65
2023-01-31T00:46:06.592Z,87.65
2023-01-31T00:46:18.860Z,87.65
2023-01-31T00:46:29.698Z,87.65
2023-01-31T00:46:41.458Z,87.76
2023-01-31T00:46:53.964Z,87.86
2023-01-31T00:47:04.754Z,87.96
2023-01-31T00:47:16.497Z,87.96
2023-01-31T00:47:27.280Z,87.96
2023-01-31T00:47:39.544Z,88.07
2023-01-31T00:47:50.332Z,88.07
2023-01-31T00:48:02.052Z,88.07
2023-01-31T00:48:15.616Z,88.07
2023-01-31T00:48:28.839Z,88.17
2023-01-31T00:48:40.556Z,88.17
2023-01-31T00:48:51.378Z,88.17
2023-01-31T00:49:03.150Z,88.17
2023-01-31T00:49:15.384Z,88.17
2023-01-31T00:49:27.352Z,88.17
2023-01-31T00:49:38.405Z,88.17
2023-01-31T00:49:50.899Z,88.28
2023-01-31T00:50:01.670Z,88.28
2023-01-31T00:50:14.895Z,88.28
2023-01-31T00:50:25.662Z,88.28
2023-01-31T00:50:36.787Z,88.38
2023-01-31T00:50:48.660Z,88.38
2023-01-31T00:51:00.401Z,88.48
2023-01-31T00:51:11.201Z,88.48
2023-01-31T00:51:21.991Z,88.59
2023-01-31T00:51:33.758Z,88.59
2023-01-31T00:51:44.533Z,88.59
2023-01-31T00:51:55.293Z,88.69
2023-01-31T00:52:08.251Z,88.69
2023-01-31T00:52:19.032Z,88.69
2023-01-31T00:52:31.564Z,88.79
2023-01-31T00:52:44.322Z,88.79
2023-01-31T00:52:55.122Z,88.79
2023-01-31T00:53:05.905Z,88.79
2023-01-31T00:53:18.320Z,88.79
2023-01-31T00:53:30.052Z,88.79
2023-01-31T00:53:42.779Z,88.90
2023-01-31T00:53:53.533Z,88.90
2023-01-31T00:54:05.512Z,88.90
2023-01-31T00:54:18.001Z,88.90
2023-01-31T00:54:29.862Z,89.00
2023-01-31T00:54:40.625Z,89.00
2023-01-31T00:54:51.360Z,89.00
2023-01-31T00:55:03.123Z,89.00
2023-01-31T00:55:13.943Z,89.00
2023-01-31T00:55:24.683Z,89.00
2023-01-31T00:55:35.644Z,88.90
2023-01-31T00:55:46.403Z,88.90
2023-01-31T00:55:57.225Z,88.90
2023-01-31T00:56:09.681Z,89.00
2023-01-31T00:56:21.420Z,89.00
2023-01-31T00:56:34.550Z,89.00
2023-01-31T00:56:46.342Z,89.11
2023-01-31T00:56:57.143Z,89.11
2023-01-31T00:57:08.162Z,89.11
2023-01-31T00:57:20.623Z,89.11
2023-01-31T00:57:33.089Z,89.11
2023-01-31T00:57:45.553Z,89.11
2023-01-31T00:57:57.280Z,89.21
2023-01-31T00:58:09.030Z,89.21
2023-01-31T00:58:19.791Z,89.21
2023-01-31T00:58:32.243Z,89.21
2023-01-31T00:58:45.501Z,89.21
2023-01-31T00:58:56.283Z,89.21
2023-01-31T00:59:08.565Z,89.21
2023-01-31T00:59:19.321Z,89.21
2023-01-31T00:59:31.081Z,89.11
2023-01-31T00:59:42.834Z,89.11
2023-01-31T00:59:53.625Z,89.11
2023-01-31T01:00:05.407Z,89.00
2023-01-31T01:00:17.847Z,89.11
2023-01-31T01:00:31.606Z,89.11
2023-01-31T01:00:44.721Z,89.21
2023-01-31T01:00:57.240Z,89.11
2023-01-31T01:01:08.103Z,89.11
2023-01-31T01:01:19.921Z,89.11
2023-01-31T01:01:31.933Z,89.21
2023-01-31T01:01:43.712Z,89.21
2023-01-31T01:01:54.524Z,89.21
2023-01-31T01:02:05.353Z,89.21
2023-01-31T01:02:16.249Z,89.21
2023-01-31T01:02:28.692Z,89.21
2023-01-31T01:02:39.472Z,89.21
2023-01-31T01:02:50.281Z,89.21
2023-01-31T01:03:02.749Z,89.21
2023-01-31T01:03:13.544Z,89.21
2023-01-31T01:03:25.311Z,89.21
2023-01-31T01:03:38.143Z,89.31
2023-01-31T01:03:48.974Z,89.31
2023-01-31T01:04:01.494Z,89.31
2023-01-31T01:04:14.482Z,89.31
2023-01-31T01:04:26.276Z,89.42
2023-01-31T01:04:37.365Z,89.42
2023-01-31T01:04:51.072Z,89.42
2023-01-31T01:05:03.581Z,89.42
2023-01-31T01:05:16.837Z,89.42
2023-01-31T01:05:27.886Z,89.42
2023-01-31T01:05:40.374Z,89.42
2023-01-31T01:05:51.436Z,89.42
2023-01-31T01:06:02.246Z,89.42
2023-01-31T01:06:13.210Z,89.42
2023-01-31T01:06:24.021Z,89.42
2023-01-31T01:06:36.221Z,89.42
2023-01-31T01:06:48.567Z,89.42
2023-01-31T01:07:01.577Z,89.42
2023-01-31T01:07:14.033Z,89.42
2023-01-31T01:07:24.823Z,89.31
2023-01-31T01:07:37.336Z,89.31
2023-01-31T01:07:48.194Z,89.21
2023-01-31T01:08:00.462Z,89.21
2023-01-31T01:08:12.958Z,88.96
2023-01-31T01:08:23.755Z,88.75
2023-01-31T01:08:35.580Z,88.75
2023-01-31T01:08:46.354Z,88.75
2023-01-31T01:08:57.155Z,88.65
2023-01-31T01:09:09.364Z,88.65
2023-01-31T01:09:21.874Z,88.54
2023-01-31T01:09:33.863Z,88.44
2023-01-31T01:09:45.223Z,88.44
2023-01-31T01:09:56.023Z,88.44
2023-01-31T01:10:06.884Z,88.44
2023-01-31T01:10:17.655Z,88.44
2023-01-31T01:10:29.417Z,88.44
2023-01-31T01:10:40.225Z,88.44
2023-01-31T01:10:51.968Z,88.44
2023-01-31T01:11:03.746Z,88.44
2023-01-31T01:11:14.527Z,88.54
2023-01-31T01:11:25.344Z,88.54
2023-01-31T01:11:36.746Z,88.54
2023-01-31T01:11:47.616Z,88.65
2023-01-31T01:11:58.434Z,88.65
2023-01-31T01:12:09.306Z,88.54
2023-01-31T01:12:21.047Z,88.54
2023-01-31T01:12:33.072Z,88.54
2023-01-31T01:12:43.896Z,88.65
2023-01-31T01:12:54.675Z,88.65
2023-01-31T01:13:05.452Z,88.65
2023-01-31T01:13:17.915Z,88.75
2023-01-31T01:13:29.703Z,88.75
2023-01-31T01:13:40.462Z,88.75
2023-01-31T01:13:51.295Z,88.85
2023-01-31T01:14:03.044Z,88.85
2023-01-31T01:14:13.909Z,88.85
2023-01-31T01:14:24.746Z,88.96
2023-01-31T01:14:35.765Z,88.96
2023-01-31T01:14:46.576Z,88.96
2023-01-31T01:14:57.375Z,88.96
2023-01-31T01:15:08.225Z,88.96
2023-01-31T01:15:20.480Z,88.85
2023-01-31T01:15:32.840Z,88.85
2023-01-31T01:15:43.634Z,88.85
2023-01-31T01:15:55.369Z,88.75
2023-01-31T01:16:06.184Z,88.65
2023-01-31T01:16:17.018Z,88.65
2023-01-31T01:16:27.842Z,88.65
2023-01-31T01:16:38.716Z,88.75
2023-01-31T01:16:50.504Z,88.75
2023-01-31T01:17:02.744Z,88.75
2023-01-31T01:17:13.576Z,88.85
2023-01-31T01:17:24.375Z,88.85
2023-01-31T01:17:36.161Z,88.85
2023-01-31T01:17:48.126Z,88.85
2023-01-31T01:17:59.875Z,88.75
2023-01-31T01:18:10.649Z,88.65
2023-01-31T01:18:21.431Z,88.65
2023-01-31T01:18:32.424Z,88.65
2023-01-31T01:18:43.185Z,88.65
2023-01-31T01:18:53.976Z,88.54
2023-01-31T01:19:05.686Z,88.44
2023-01-31T01:19:16.439Z,88.23
2023-01-31T01:19:27.282Z,88.13
2023-01-31T01:19:39.024Z,88.13
2023-01-31T01:19:49.807Z,88.13
2023-01-31T01:20:00.594Z,88.13
2023-01-31T01:20:11.335Z,88.13
2023-01-31T01:20:23.108Z,88.13
2023-01-31T01:20:34.421Z,88.13
2023-01-31T01:20:47.166Z,88.13
2023-01-31T01:21:00.891Z,88.02
2023-01-31T01:21:13.425Z,88.13
2023-01-31T01:21:25.171Z,88.13
2023-01-31T01:21:36.417Z,88.13
2023-01-31T01:21:48.926Z,88.13
2023-01-31T01:21:59.754Z,88.23
2023-01-31T01:22:10.527Z,88.23
2023-01-31T01:22:21.329Z,88.23
2023-01-31T01:22:34.022Z,88.23
2023-01-31T01:22:46.351Z,88.23
2023-01-31T01:22:57.130Z,88.23
2023-01-31T01:23:08.896Z,88.23
2023-01-31T01:23:19.649Z,88.34
2023-01-31T01:23:32.167Z,88.34
2023-01-31T01:23:42.895Z,88.23
2023-01-31T01:23:53.688Z,88.23
2023-01-31T01:24:06.135Z,88.23
2023-01-31T01:24:18.020Z,88.23
2023-01-31T01:24:30.616Z,88.34
2023-01-31T01:24:42.200Z,88.23
2023-01-31T01:24:54.416Z,88.23
2023-01-31T01:25:07.664Z,88.23
2023-01-31T01:25:20.517Z,88.23
2023-01-31T01:25:33.375Z,88.34
2023-01-31T01:25:45.884Z,88.44
2023-01-31T01:25:58.363Z,88.44
2023-01-31T01:26:10.616Z,88.54
2023-01-31T01:26:21.462Z,88.54
2023-01-31T01:26:34.954Z,88.54
2023-01-31T01:26:47.512Z,88.54
2023-01-31T01:26:59.259Z,88.54
2023-01-31T01:27:10.102Z,88.65
2023-01-31T01:27:23.337Z,88.65
2023-01-31T01:27:35.992Z,88.75
2023-01-31T01:27:47.727Z,88.75
2023-01-31T01:28:01.239Z,88.65
2023-01-31T01:28:12.967Z,88.54
2023-01-31T01:28:25.749Z,88.44
2023-01-31T01:28:38.610Z,88.44
2023-01-31T01:28:51.057Z,88.34
2023-01-31T01:29:02.845Z,88.23
2023-01-31T01:29:13.650Z,88.23
2023-01-31T01:29:24.460Z,88.23
2023-01-31T01:29:37.588Z,88.34
2023-01-31T01:29:48.380Z,88.34
2023-01-31T01:29:59.146Z,88.34
2023-01-31T01:30:11.404Z,88.34
2023-01-31T01:30:22.139Z,88.34
2023-01-31T01:30:34.613Z,88.34
2023-01-31T01:30:45.382Z,88.34
2023-01-31T01:30:56.269Z,88.23
2023-01-31T01:31:08.631Z,88.23
2023-01-31T01:31:20.567Z,88.34
2023-01-31T01:31:33.118Z,88.34
2023-01-31T01:31:44.008Z,88.34
2023-01-31T01:31:55.917Z,88.23
2023-01-31T01:32:07.659Z,88.13
2023-01-31T01:32:18.413Z,88.23
2023-01-31T01:32:30.894Z,88.23
2023-01-31T01:32:43.317Z,88.13
2023-01-31T01:32:55.097Z,88.13
2023-01-31T01:33:05.897Z,88.13
2023-01-31T01:33:17.708Z,88.02
2023-01-31T01:33:28.548Z,88.02
2023-01-31T01:33:39.348Z,88.13
2023-01-31T01:33:51.644Z,88.13
2023-01-31T01:34:02.419Z,88.13
2023-01-31T01:34:13.254Z,88.13
2023-01-31T01:34:25.458Z,88.13
2023-01-31T01:34:37.198Z,88.23
2023-01-31T01:34:49.650Z,88.34
2023-01-31T01:35:00.469Z,88.44
2023-01-31T01:35:12.744Z,88.54
2023-01-31T01:35:24.521Z,88.75
2023-01-31T01:35:35.350Z,88.85
2023-01-31T01:35:46.099Z,88.85
2023-01-31T01:35:58.621Z,88.85
2023-01-31T01:36:10.395Z,88.96
2023-01-31T01:36:22.358Z,89.06
2023-01-31T01:36:33.650Z,89.06
2023-01-31T01:36:48.160Z,89.17
2023-01-31T01:36:59.129Z,89.27
2023-01-31T01:37:10.894Z,89.27
2023-01-31T01:37:21.709Z,89.27
2023-01-31T01:37:32.547Z,89.27
2023-01-31T01:37:43.301Z,89.27
2023-01-31T01:37:55.051Z,89.37
2023-01-31T01:38:06.853Z,89.37
2023-01-31T01:38:17.591Z,89.37
2023-01-31T01:38:31.331Z,89.37
2023-01-31T01:38:43.076Z,89.48
2023-01-31T01:38:53.861Z,89.37
2023-01-31T01:39:04.672Z,89.37
2023-01-31T01:39:15.490Z,89.48
2023-01-31T01:39:27.404Z,89.48
2023-01-31T01:39:38.310Z,89.48
2023-01-31T01:39:49.250Z,89.48
2023-01-31T01:40:01.321Z,89.48
2023-01-31T01:40:12.102Z,89.58
2023-01-31T01:40:23.838Z,89.58
2023-01-31T01:40:34.605Z,89.58
2023-01-31T01:40:46.319Z,89.58
2023-01-31T01:40:58.087Z,89.69
2023-01-31T01:41:08.871Z,89.69
2023-01-31T01:41:20.618Z,89.69
2023-01-31T01:41:33.366Z,89.58
2023-01-31T01:41:45.127Z,89.58
2023-01-31T01:41:55.929Z,89.48
2023-01-31T01:42:07.690Z,89.48
2023-01-31T01:42:20.148Z,89.48
2023-01-31T01:42:30.954Z,89.58
2023-01-31T01:42:43.069Z,89.48
2023-01-31T01:42:53.881Z,89.48
2023-01-31T01:43:05.620Z,89.48
2023-01-31T01:43:18.101Z,89.37
2023-01-31T01:43:29.517Z,89.27
2023-01-31T01:43:41.354Z,89.17
2023-01-31T01:43:54.615Z,89.17
2023-01-31T01:44:05.402Z,89.17
2023-01-31T01:44:16.271Z,89.17
2023-01-31T01:44:28.377Z,89.17
2023-01-31T01:44:39.174Z,89.27
2023-01-31T01:44:51.637Z,89.37
2023-01-31T01:45:03.476Z,89.48
2023-01-31T01:45:19.996Z,89.37
2023-01-31T01:45:33.560Z,89.37
2023-01-31T01:45:46.132Z,89.37
2023-01-31T01:45:57.878Z,89.37
2023-01-31T01:46:10.450Z,89.37
2023-01-31T01:46:23.653Z,89.48
2023-01-31T01:46:35.409Z,89.62
2023-01-31T01:46:47.861Z,89.69
2023-01-31T01:46:59.632Z,89.73
2023-01-31T01:47:12.087Z,89.79
2023-01-31T01:47:23.825Z,89.83
2023-01-31T01:47:36.389Z,89.89
2023-01-31T01:47:48.881Z,90.10
2023-01-31T01:47:59.641Z,90.20
2023-01-31T01:48:12.158Z,90.14
2023-01-31T01:48:23.890Z,89.94
2023-01-31T01:48:34.714Z,89.73
2023-01-31T01:48:46.316Z,89.83
2023-01-31T01:48:58.097Z,89.94
2023-01-31T01:49:08.853Z,90.14
2023-01-31T01:49:21.851Z,90.25
2023-01-31T01:49:33.571Z,90.35
2023-01-31T01:49:45.320Z,90.25
2023-01-31T01:49:56.149Z,90.14
2023-01-31T01:50:08.893Z,90.14
2023-01-31T01:50:19.906Z,90.14
2023-01-31T01:50:31.149Z,90.25
2023-01-31T01:50:43.444Z,90.45
2023-01-31T01:50:55.172Z,90.56
2023-01-31T01:51:05.925Z,90.66
2023-01-31T01:51:18.389Z,90.66
2023-01-31T01:51:30.122Z,90.77
2023-01-31T01:51:41.893Z,90.87
2023-01-31T01:51:53.652Z,90.87
2023-01-31T01:52:06.619Z,90.87
2023-01-31T01:52:17.392Z,90.87
2023-01-31T01:52:29.756Z,90.97
2023-01-31T01:52:40.532Z,90.97
2023-01-31T01:52:51.303Z,90.97
2023-01-31T01:53:02.124Z,91.08
2023-01-31T01:53:14.119Z,91.08
2023-01-31T01:53:27.382Z,90.97
2023-01-31T01:53:39.645Z,90.77
2023-01-31T01:53:50.452Z,90.66
2023-01-31T01:54:02.180Z,90.66
2023-01-31T01:54:13.913Z,90.66
2023-01-31T01:54:24.757Z,90.66
2023-01-31T01:54:36.473Z,90.77
2023-01-31T01:54:47.194Z,90.77
2023-01-31T01:54:57.953Z,90.87
2023-01-31T01:55:08.714Z,90.87
2023-01-31T01:55:19.880Z,90.97
2023-01-31T01:55:32.735Z,90.97
2023-01-31T01:55:44.523Z,90.97
2023-01-31T01:55:55.304Z,90.87
2023-01-31T01:56:07.999Z,90.87
2023-01-31T01:56:18.794Z,90.87
2023-01-31T01:56:29.595Z,90.87
2023-01-31T01:56:41.345Z,90.77
2023-01-31T01:56:53.152Z,90.77
2023-01-31T01:57:05.968Z,90.87
2023-01-31T01:57:16.786Z,90.97
2023-01-31T01:57:29.104Z,90.97
2023-01-31T01:57:40.969Z,90.97
2023-01-31T01:57:51.789Z,91.08
2023-01-31T01:58:02.624Z,91.08
2023-01-31T01:58:15.375Z,91.08
2023-01-31T01:58:26.643Z,91.08
2023-01-31T01:58:37.411Z,91.08
2023-01-31T01:58:48.193Z,91.08
2023-01-31T01:58:58.939Z,91.18
2023-01-31T01:59:09.733Z,91.18
2023-01-31T01:59:20.560Z,91.18
2023-01-31T01:59:32.318Z,91.08
2023-01-31T01:59:44.090Z,91.08
2023-01-31T01:59:54.905Z,90.97
2023-01-31T02:00:05.685Z,90.97
2023-01-31T02:00:16.509Z,90.97
2023-01-31T02:00:28.782Z,90.97
2023-01-31T02:00:39.616Z,90.87
2023-01-31T02:00:50.428Z,90.97
2023-01-31T02:01:03.703Z,90.97
2023-01-31T02:01:14.542Z,90.66
2023-01-31T02:01:25.341Z,90.45
2023-01-31T02:01:37.819Z,90.35
2023-01-31T02:01:48.621Z,90.35
2023-01-31T02:01:59.501Z,90.25
2023-01-31T02:02:12.802Z,90.04
2023-01-31T02:02:23.648Z,89.94
2023-01-31T02:02:36.288Z,89.94
2023-01-31T02:02:47.142Z,90.04
2023-01-31T02:02:59.381Z,90.04
2023-01-31T02:03:10.160Z,90.04
2023-01-31T02:03:20.934Z,90.14
2023-01-31T02:03:31.735Z,90.14
2023-01-31T02:03:43.988Z,90.25
2023-01-31T02:03:54.794Z,90.35
2023-01-31T02:04:05.579Z,90.35
2023-01-31T02:04:18.006Z,90.35
2023-01-31T02:04:29.293Z,90.45
2023-01-31T02:04:41.584Z,90.56
2023-01-31T02:04:53.910Z,90.56
2023-01-31T02:05:04.668Z,90.56
2023-01-31T02:05:15.498Z,90.56
2023-01-31T02:05:28.175Z,90.56
2023-01-31T02:05:40.638Z,90.56
2023-01-31T02:05:51.435Z,90.56
2023-01-31T02:06:02.278Z,90.56
2023-01-31T02:06:13.116Z,90.56
2023-01-31T02:06:25.870Z,90.66
2023-01-31T02:06:36.577Z,90.66
2023-01-31T02:06:49.807Z,90.66
2023-01-31T02:07:02.258Z,90.66
2023-01-31T02:07:14.251Z,90.66
2023-01-31T02:07:26.798Z,90.66
2023-01-31T02:07:38.840Z,90.66
2023-01-31T02:07:49.585Z,90.66
2023-01-31T02:08:01.849Z,90.66
2023-01-31T02:08:14.356Z,90.56
2023-01-31T02:08:26.597Z,90.56
2023-01-31T02:08:38.366Z,90.66
2023-01-31T02:08:50.619Z,90.66
2023-01-31T02:09:03.372Z,90.56
2023-01-31T02:09:14.206Z,90.45
2023-01-31T02:09:25.311Z,90.45
2023-01-31T02:09:37.061Z,90.45
2023-01-31T02:09:47.856Z,90.45
2023-01-31T02:10:00.116Z,90.56
2023-01-31T02:10:10.922Z,90.45
2023-01-31T02:10:23.175Z,90.45
2023-01-31T02:10:36.387Z,90.45
2023-01-31T02:10:48.142Z,90.35
2023-01-31T02:10:58.910Z,90.35
2023-01-31T02:11:10.675Z,90.35
2023-01-31T02:11:21.484Z,90.45
2023-01-31T02:11:34.237Z,90.45
2023-01-31T02:11:47.452Z,90.45
2023-01-31T02:11:59.199Z,90.35
2023-01-31T02:12:11.636Z,90.35
2023-01-31T02:12:25.068Z,90.35
2023-01-31T02:12:37.567Z,90.25
2023-01-31T02:12:48.365Z,90.35
2023-01-31T02:13:01.398Z,90.35
2023-01-31T02:13:13.158Z,90.45
2023-01-31T02:13:23.916Z,90.45
2023-01-31T02:13:37.174Z,90.56
2023-01-31T02:13:49.896Z,90.56
2023-01-31T02:14:01.683Z,90.56
2023-01-31T02:14:14.988Z,90.45
2023-01-31T02:14:25.959Z,90.35
2023-01-31T02:14:36.768Z,90.35
2023-01-31T02:14:49.239Z,90.45
2023-01-31T02:15:01.537Z,90.45
2023-01-31T02:15:13.277Z,90.56
2023-01-31T02:15:25.907Z,90.56
2023-01-31T02:15:36.707Z,90.66
2023-01-31T02:15:48.427Z,90.77
2023-01-31T02:15:59.271Z,90.66
2023-01-31T02:16:11.077Z,90.66
2023-01-31T02:16:22.859Z,90.56
2023-01-31T02:16:35.182Z,90.45
2023-01-31T02:16:46.965Z,90.45
2023-01-31T02:16:57.729Z,90.45
2023-01-31T02:17:08.486Z,90.45
2023-01-31T02:17:20.283Z,90.45
2023-01-31T02:17:32.836Z,90.45
2023-01-31T02:17:43.577Z,90.45
2023-01-31T02:17:54.385Z,90.45
2023-01-31T02:18:05.147Z,90.45
2023-01-31T02:18:15.991Z,90.56
2023-01-31T02:18:27.964Z,90.56
2023-01-31T02:18:41.193Z,90.56
2023-01-31T02:18:53.183Z,90.56
2023-01-31T02:19:04.012Z,90.56
2023-01-31T02:19:15.762Z,90.56
2023-01-31T02:19:28.764Z,90.56
2023-01-31T02:19:39.735Z,90.56
2023-01-31T02:19:50.479Z,90.56
2023-01-31T02:20:02.972Z,90.56
2023-01-31T02:20:14.689Z,90.45
2023-01-31T02:20:25.471Z,90.45
2023-01-31T02:20:36.276Z,90.45
2023-01-31T02:20:48.038Z,90.45
2023-01-31T02:20:58.825Z,90.35
2023-01-31T02:21:10.663Z,90.25
2023-01-31T02:21:23.117Z,90.25
2023-01-31T02:21:35.338Z,90.25
2023-01-31T02:21:46.163Z,90.25
2023-01-31T02:21:56.937Z,90.25
2023-01-31T02:22:07.733Z,90.35
2023-01-31T02:22:19.482Z,90.35
2023-01-31T02:22:31.198Z,90.45
2023-01-31T02:22:44.393Z,90.45
2023-01-31T02:22:56.136Z,90.56
2023-01-31T02:23:08.632Z,90.56
2023-01-31T02:23:19.464Z,90.56
2023-01-31T02:23:31.902Z,90.45
2023-01-31T02:23:42.657Z,90.45
2023-01-31T02:23:55.167Z,90.56
2023-01-31T02:24:06.963Z,90.56
2023-01-31T02:24:17.732Z,90.56
2023-01-31T02:24:28.517Z,90.56
2023-01-31T02:24:39.354Z,90.66
2023-01-31T02:24:50.166Z,90.66
2023-01-31T02:25:01.912Z,90.66
2023-01-31T02:25:14.640Z,90.56
2023-01-31T02:25:25.626Z,90.56
2023-01-31T02:25:37.369Z,90.56
2023-01-31T02:25:49.878Z,90.56
2023-01-31T02:26:02.331Z,90.56
2023-01-31T02:26:15.033Z,90.66
2023-01-31T02:26:28.007Z,90.77
2023-01-31T02:26:40.538Z,90.66
2023-01-31T02:26:51.359Z,90.45
2023-01-31T02:27:02.189Z,90.35
2023-01-31T02:27:13.949Z,90.35
2023-01-31T02:27:24.719Z,90.35
2023-01-31T02:27:37.689Z,90.35
2023-01-31T02:27:48.503Z,90.45
2023-01-31T02:27:59.279Z,90.45
2023-01-31T02:28:11.770Z,90.35
2023-01-31T02:28:23.500Z,90.25
2023-01-31T02:28:35.461Z,90.14
2023-01-31T02:28:46.234Z,90.14
2023-01-31T02:28:57.029Z,90.14
2023-01-31T02:29:07.829Z,90.04
2023-01-31T02:29:20.370Z,89.94
2023-01-31T02:29:31.210Z,89.94
2023-01-31T02:29:41.995Z,89.94
2023-01-31T02:29:53.768Z,89.94
2023-01-31T02:30:05.521Z,89.94
2023-01-31T02:30:18.489Z,90.04
2023-01-31T02:30:29.389Z,90.04
2023-01-31T02:30:40.222Z,90.14
2023-01-31T02:30:52.685Z,90.14